sensor_id;sensor_type;location;lat;lon;timestamp;temperature;humidity
63407;SHT31;49543;45.892;10.838;2023-07-13T00:01:28;22.29;99.99
63407;SHT31;49543;45.892;10.838;2023-07-13T00:03:54;22.39;99.99
63407;SHT31;49543;45.892;10.838;2023-07-13T00:06:20;22.39;99.99
63407;SHT31;49543;45.892;10.838;2023-07-13T00:08:46;22.33;99.99
63407;SHT31;49543;45.892;10.838;2023-07-13T00:11:13;22.31;99.99
63407;SHT31;49543;45.892;10.838;2023-07-13T00:13:40;22.34;99.99
63407;SHT31;49543;45.892;10.838;2023-07-13T00:16:06;22.34;99.99
63407;SHT31;49543;45.892;10.838;2023-07-13T00:18:32;22.09;99.99
63407;SHT31;49543;45.892;10.838;2023-07-13T00:20:57;22.10;99.99
63407;SHT31;49543;45.892;10.838;2023-07-13T00:23:34;22.17;99.99
63407;SHT31;49543;45.892;10.838;2023-07-13T00:26:04;22.21;99.99
63407;SHT31;49543;45.892;10.838;2023-07-13T00:28:29;22.30;99.99
63407;SHT31;49543;45.892;10.838;2023-07-13T00:30:55;22.36;99.99
63407;SHT31;49543;45.892;10.838;2023-07-13T00:33:21;22.30;99.99
63407;SHT31;49543;45.892;10.838;2023-07-13T00:35:48;22.33;99.99
63407;SHT31;49543;45.892;10.838;2023-07-13T00:38:14;22.21;99.99
63407;SHT31;49543;45.892;10.838;2023-07-13T00:40:39;22.23;99.99
63407;SHT31;49543;45.892;10.838;2023-07-13T00:43:20;22.25;99.99
63407;SHT31;49543;45.892;10.838;2023-07-13T00:48:20;22.06;99.99
63407;SHT31;49543;45.892;10.838;2023-07-13T00:50:49;21.83;99.99
63407;SHT31;49543;45.892;10.838;2023-07-13T00:53:17;21.89;99.99
63407;SHT31;49543;45.892;10.838;2023-07-13T00:55:43;21.83;99.99
63407;SHT31;49543;45.892;10.838;2023-07-13T00:58:08;21.89;99.99
63407;SHT31;49543;45.892;10.838;2023-07-13T01:00:35;21.93;99.99
63407;SHT31;49543;45.892;10.838;2023-07-13T01:03:04;21.92;99.99
63407;SHT31;49543;45.892;10.838;2023-07-13T01:05:32;21.99;99.99
63407;SHT31;49543;45.892;10.838;2023-07-13T01:07:59;21.92;99.99
63407;SHT31;49543;45.892;10.838;2023-07-13T01:10:25;21.92;99.99
63407;SHT31;49543;45.892;10.838;2023-07-13T01:12:51;22.05;99.99
63407;SHT31;49543;45.892;10.838;2023-07-13T01:15:39;22.12;99.99
63407;SHT31;49543;45.892;10.838;2023-07-13T01:18:07;22.13;99.99
63407;SHT31;49543;45.892;10.838;2023-07-13T01:20:33;22.16;99.99
63407;SHT31;49543;45.892;10.838;2023-07-13T01:23:11;22.07;99.99
63407;SHT31;49543;45.892;10.838;2023-07-13T01:25:38;21.99;99.99
63407;SHT31;49543;45.892;10.838;2023-07-13T01:28:05;21.90;99.99
63407;SHT31;49543;45.892;10.838;2023-07-13T01:30:31;21.92;99.99
63407;SHT31;49543;45.892;10.838;2023-07-13T01:32:57;21.83;99.99
63407;SHT31;49543;45.892;10.838;2023-07-13T01:35:23;21.75;99.99
63407;SHT31;49543;45.892;10.838;2023-07-13T01:37:51;21.66;99.99
63407;SHT31;49543;45.892;10.838;2023-07-13T01:40:16;21.52;99.99
63407;SHT31;49543;45.892;10.838;2023-07-13T01:42:42;21.65;99.99
63407;SHT31;49543;45.892;10.838;2023-07-13T01:45:08;21.34;99.99
63407;SHT31;49543;45.892;10.838;2023-07-13T01:47:33;21.42;99.99
63407;SHT31;49543;45.892;10.838;2023-07-13T01:49:59;21.54;99.99
63407;SHT31;49543;45.892;10.838;2023-07-13T01:52:24;21.49;99.99
63407;SHT31;49543;45.892;10.838;2023-07-13T01:54:50;21.62;99.99
63407;SHT31;49543;45.892;10.838;2023-07-13T01:57:15;21.57;99.99
63407;SHT31;49543;45.892;10.838;2023-07-13T01:59:40;21.59;99.99
63407;SHT31;49543;45.892;10.838;2023-07-13T02:02:06;21.65;99.99
63407;SHT31;49543;45.892;10.838;2023-07-13T02:04:32;21.69;99.99
63407;SHT31;49543;45.892;10.838;2023-07-13T02:06:57;21.71;99.99
63407;SHT31;49543;45.892;10.838;2023-07-13T02:09:23;21.74;99.99
63407;SHT31;49543;45.892;10.838;2023-07-13T02:11:48;21.68;99.99
63407;SHT31;49543;45.892;10.838;2023-07-13T02:14:14;21.72;99.99
63407;SHT31;49543;45.892;10.838;2023-07-13T02:16:40;21.76;99.99
63407;SHT31;49543;45.892;10.838;2023-07-13T02:19:06;21.76;99.99
63407;SHT31;49543;45.892;10.838;2023-07-13T02:21:31;21.74;99.99
63407;SHT31;49543;45.892;10.838;2023-07-13T02:23:57;21.74;99.99
63407;SHT31;49543;45.892;10.838;2023-07-13T02:26:23;21.79;99.99
63407;SHT31;49543;45.892;10.838;2023-07-13T02:28:48;21.75;99.99
63407;SHT31;49543;45.892;10.838;2023-07-13T02:31:15;21.76;99.99
63407;SHT31;49543;45.892;10.838;2023-07-13T02:33:41;21.81;99.99
63407;SHT31;49543;45.892;10.838;2023-07-13T02:36:07;21.79;99.99
63407;SHT31;49543;45.892;10.838;2023-07-13T02:38:33;21.74;99.99
63407;SHT31;49543;45.892;10.838;2023-07-13T02:41:00;21.71;99.99
63407;SHT31;49543;45.892;10.838;2023-07-13T02:43:25;21.62;99.99
63407;SHT31;49543;45.892;10.838;2023-07-13T02:45:51;21.68;99.99
63407;SHT31;49543;45.892;10.838;2023-07-13T02:48:16;21.71;99.99
63407;SHT31;49543;45.892;10.838;2023-07-13T02:50:42;21.69;99.99
63407;SHT31;49543;45.892;10.838;2023-07-13T02:53:09;21.71;99.99
63407;SHT31;49543;45.892;10.838;2023-07-13T02:55:34;21.68;99.99
63407;SHT31;49543;45.892;10.838;2023-07-13T02:57:59;21.62;99.99
63407;SHT31;49543;45.892;10.838;2023-07-13T03:00:25;21.59;99.99
63407;SHT31;49543;45.892;10.838;2023-07-13T03:02:50;21.52;99.99
63407;SHT31;49543;45.892;10.838;2023-07-13T03:05:16;21.52;99.99
63407;SHT31;49543;45.892;10.838;2023-07-13T03:07:42;21.42;99.99
63407;SHT31;49543;45.892;10.838;2023-07-13T03:10:09;21.41;99.99
63407;SHT31;49543;45.892;10.838;2023-07-13T03:12:35;21.37;99.99
63407;SHT31;49543;45.892;10.838;2023-07-13T03:15:00;21.41;99.99
63407;SHT31;49543;45.892;10.838;2023-07-13T03:17:26;21.47;99.99
63407;SHT31;49543;45.892;10.838;2023-07-13T03:19:51;21.41;99.99
63407;SHT31;49543;45.892;10.838;2023-07-13T03:22:18;21.41;99.99
63407;SHT31;49543;45.892;10.838;2023-07-13T03:24:44;21.40;99.99
63407;SHT31;49543;45.892;10.838;2023-07-13T03:27:09;21.48;99.99
63407;SHT31;49543;45.892;10.838;2023-07-13T03:29:35;21.51;99.99
63407;SHT31;49543;45.892;10.838;2023-07-13T03:32:00;21.47;99.99
63407;SHT31;49543;45.892;10.838;2023-07-13T03:34:26;21.44;99.99
63407;SHT31;49543;45.892;10.838;2023-07-13T03:36:54;21.41;99.99
63407;SHT31;49543;45.892;10.838;2023-07-13T03:39:20;21.31;99.99
63407;SHT31;49543;45.892;10.838;2023-07-13T03:41:45;21.34;99.99
63407;SHT31;49543;45.892;10.838;2023-07-13T03:44:11;21.31;99.99
63407;SHT31;49543;45.892;10.838;2023-07-13T03:46:37;21.34;99.99
63407;SHT31;49543;45.892;10.838;2023-07-13T03:49:03;21.34;99.99
63407;SHT31;49543;45.892;10.838;2023-07-13T03:51:29;21.37;99.99
63407;SHT31;49543;45.892;10.838;2023-07-13T03:53:55;21.41;99.99
63407;SHT31;49543;45.892;10.838;2023-07-13T03:56:20;21.47;99.99
63407;SHT31;49543;45.892;10.838;2023-07-13T03:58:48;21.48;99.99
63407;SHT31;49543;45.892;10.838;2023-07-13T04:01:15;21.49;99.99
63407;SHT31;49543;45.892;10.838;2023-07-13T04:03:41;21.48;99.99
63407;SHT31;49543;45.892;10.838;2023-07-13T04:06:12;21.45;99.99
63407;SHT31;49543;45.892;10.838;2023-07-13T04:08:40;21.51;99.99
63407;SHT31;49543;45.892;10.838;2023-07-13T04:11:06;21.55;99.99
63407;SHT31;49543;45.892;10.838;2023-07-13T04:13:32;21.55;99.99
63407;SHT31;49543;45.892;10.838;2023-07-13T04:15:57;21.59;99.99
63407;SHT31;49543;45.892;10.838;2023-07-13T04:18:23;21.63;99.99
63407;SHT31;49543;45.892;10.838;2023-07-13T04:20:49;21.61;99.99
63407;SHT31;49543;45.892;10.838;2023-07-13T04:23:16;21.68;99.99
63407;SHT31;49543;45.892;10.838;2023-07-13T04:25:46;21.71;99.99
63407;SHT31;49543;45.892;10.838;2023-07-13T04:28:12;21.71;99.99
63407;SHT31;49543;45.892;10.838;2023-07-13T04:30:37;21.69;99.99
63407;SHT31;49543;45.892;10.838;2023-07-13T04:33:03;21.69;99.99
63407;SHT31;49543;45.892;10.838;2023-07-13T04:35:29;21.72;99.99
63407;SHT31;49543;45.892;10.838;2023-07-13T04:37:56;21.75;99.99
63407;SHT31;49543;45.892;10.838;2023-07-13T04:40:21;21.75;99.99
63407;SHT31;49543;45.892;10.838;2023-07-13T04:42:47;21.74;99.99
63407;SHT31;49543;45.892;10.838;2023-07-13T04:45:14;21.72;99.99
63407;SHT31;49543;45.892;10.838;2023-07-13T04:47:40;21.76;99.99
63407;SHT31;49543;45.892;10.838;2023-07-13T04:50:07;21.83;99.99
63407;SHT31;49543;45.892;10.838;2023-07-13T04:52:33;21.85;99.99
63407;SHT31;49543;45.892;10.838;2023-07-13T04:54:59;21.88;99.99
63407;SHT31;49543;45.892;10.838;2023-07-13T04:57:26;21.90;99.99
63407;SHT31;49543;45.892;10.838;2023-07-13T04:59:51;21.92;99.99
63407;SHT31;49543;45.892;10.838;2023-07-13T05:02:17;21.93;99.99
63407;SHT31;49543;45.892;10.838;2023-07-13T05:04:47;22.00;99.99
63407;SHT31;49543;45.892;10.838;2023-07-13T05:07:13;22.03;99.99
63407;SHT31;49543;45.892;10.838;2023-07-13T05:09:38;22.07;99.99
63407;SHT31;49543;45.892;10.838;2023-07-13T05:12:06;22.10;99.99
63407;SHT31;49543;45.892;10.838;2023-07-13T05:14:32;22.12;99.99
63407;SHT31;49543;45.892;10.838;2023-07-13T05:16:57;22.09;99.99
63407;SHT31;49543;45.892;10.838;2023-07-13T05:19:23;22.06;99.99
63407;SHT31;49543;45.892;10.838;2023-07-13T05:21:52;22.09;99.99
63407;SHT31;49543;45.892;10.838;2023-07-13T05:24:17;22.10;99.99
63407;SHT31;49543;45.892;10.838;2023-07-13T05:26:44;22.13;99.99
63407;SHT31;49543;45.892;10.838;2023-07-13T05:29:25;22.17;99.99
63407;SHT31;49543;45.892;10.838;2023-07-13T05:34:23;22.25;99.99
63407;SHT31;49543;45.892;10.838;2023-07-13T05:39:14;22.33;99.99
63407;SHT31;49543;45.892;10.838;2023-07-13T05:41:39;22.36;99.99
63407;SHT31;49543;45.892;10.838;2023-07-13T05:44:05;22.37;99.99
63407;SHT31;49543;45.892;10.838;2023-07-13T05:46:31;22.44;99.99
63407;SHT31;49543;45.892;10.838;2023-07-13T05:48:56;22.48;99.99
63407;SHT31;49543;45.892;10.838;2023-07-13T05:51:22;22.55;99.99
63407;SHT31;49543;45.892;10.838;2023-07-13T05:53:47;22.62;99.99
63407;SHT31;49543;45.892;10.838;2023-07-13T05:56:13;22.68;99.99
63407;SHT31;49543;45.892;10.838;2023-07-13T05:58:38;22.73;99.99
63407;SHT31;49543;45.892;10.838;2023-07-13T06:01:10;22.76;98.78
63407;SHT31;49543;45.892;10.838;2023-07-13T06:03:36;22.84;98.38
63407;SHT31;49543;45.892;10.838;2023-07-13T06:06:06;22.85;97.52
63407;SHT31;49543;45.892;10.838;2023-07-13T06:08:32;22.92;96.04
63407;SHT31;49543;45.892;10.838;2023-07-13T06:11:06;22.99;95.55
63407;SHT31;49543;45.892;10.838;2023-07-13T06:13:32;23.02;95.12
63407;SHT31;49543;45.892;10.838;2023-07-13T06:15:58;23.07;95.73
63407;SHT31;49543;45.892;10.838;2023-07-13T06:18:24;23.09;95.24
63407;SHT31;49543;45.892;10.838;2023-07-13T09:40:56;23.07;99.99
63407;SHT31;49543;45.892;10.838;2023-07-13T09:43:25;23.13;99.99
63407;SHT31;49543;45.892;10.838;2023-07-13T09:45:50;23.17;99.99
63407;SHT31;49543;45.892;10.838;2023-07-13T09:48:17;23.09;99.99
63407;SHT31;49543;45.892;10.838;2023-07-13T09:50:44;23.17;99.99
63407;SHT31;49543;45.892;10.838;2023-07-13T09:53:18;23.19;99.99
63407;SHT31;49543;45.892;10.838;2023-07-13T09:55:46;23.28;99.99
63407;SHT31;49543;45.892;10.838;2023-07-13T09:58:21;23.43;99.99
63407;SHT31;49543;45.892;10.838;2023-07-13T10:01:02;23.60;99.99
63407;SHT31;49543;45.892;10.838;2023-07-13T10:03:30;23.65;99.99
63407;SHT31;49543;45.892;10.838;2023-07-13T10:06:10;23.74;99.99
63407;SHT31;49543;45.892;10.838;2023-07-13T10:08:37;23.81;99.99
63407;SHT31;49543;45.892;10.838;2023-07-13T10:11:20;23.84;99.99
63407;SHT31;49543;45.892;10.838;2023-07-13T10:13:58;23.81;99.99
63407;SHT31;49543;45.892;10.838;2023-07-13T10:16:34;23.75;99.99
63407;SHT31;49543;45.892;10.838;2023-07-13T10:19:10;23.77;99.99
63407;SHT31;49543;45.892;10.838;2023-07-13T10:21:41;23.88;99.99
63407;SHT31;49543;45.892;10.838;2023-07-13T10:24:20;23.98;99.99
63407;SHT31;49543;45.892;10.838;2023-07-13T10:27:16;24.08;99.99
63407;SHT31;49543;45.892;10.838;2023-07-13T10:29:47;24.22;99.99
63407;SHT31;49543;45.892;10.838;2023-07-13T10:32:15;24.32;99.99
63407;SHT31;49543;45.892;10.838;2023-07-13T10:34:43;24.47;99.99
63407;SHT31;49543;45.892;10.838;2023-07-13T10:37:19;24.57;99.99
63407;SHT31;49543;45.892;10.838;2023-07-13T10:39:47;24.83;99.32
63407;SHT31;49543;45.892;10.838;2023-07-13T10:42:18;25.08;98.08
63407;SHT31;49543;45.892;10.838;2023-07-13T10:44:48;25.51;96.81
63407;SHT31;49543;45.892;10.838;2023-07-13T10:47:16;25.93;94.30
63407;SHT31;49543;45.892;10.838;2023-07-13T10:49:44;26.31;92.54
63407;SHT31;49543;45.892;10.838;2023-07-13T10:52:49;26.60;93.79
63407;SHT31;49543;45.892;10.838;2023-07-13T10:58:39;27.17;92.25
63407;SHT31;49543;45.892;10.838;2023-07-13T11:01:17;27.38;90.39
63407;SHT31;49543;45.892;10.838;2023-07-13T11:06:11;27.51;89.43
63407;SHT31;49543;45.892;10.838;2023-07-13T11:13:58;27.79;88.97
63407;SHT31;49543;45.892;10.838;2023-07-13T11:21:28;28.22;87.97
63407;SHT31;49543;45.892;10.838;2023-07-13T11:26:50;28.24;88.49
63407;SHT31;49543;45.892;10.838;2023-07-13T11:29:39;28.22;85.02
63407;SHT31;49543;45.892;10.838;2023-07-13T11:32:22;28.61;84.63
63407;SHT31;49543;45.892;10.838;2023-07-13T11:34:47;28.93;80.83
63407;SHT31;49543;45.892;10.838;2023-07-13T11:37:16;28.95;83.38
63407;SHT31;49543;45.892;10.838;2023-07-13T11:39:44;29.09;81.45
63407;SHT31;49543;45.892;10.838;2023-07-13T11:42:16;29.19;82.95
63407;SHT31;49543;45.892;10.838;2023-07-13T11:44:46;29.35;81.80
63407;SHT31;49543;45.892;10.838;2023-07-13T16:41:24;22.48;99.99
63407;SHT31;49543;45.892;10.838;2023-07-13T16:43:49;22.51;99.99
63407;SHT31;49543;45.892;10.838;2023-07-13T16:46:15;22.48;99.99
63407;SHT31;49543;45.892;10.838;2023-07-13T16:48:43;22.51;99.99
63407;SHT31;49543;45.892;10.838;2023-07-13T16:51:08;22.45;99.99
63407;SHT31;49543;45.892;10.838;2023-07-13T16:53:34;22.43;99.99
63407;SHT31;49543;45.892;10.838;2023-07-13T16:56:00;22.45;99.99
63407;SHT31;49543;45.892;10.838;2023-07-13T16:58:26;22.47;99.99
63407;SHT31;49543;45.892;10.838;2023-07-13T17:00:53;22.44;99.99
63407;SHT31;49543;45.892;10.838;2023-07-13T17:03:19;22.37;99.99
63407;SHT31;49543;45.892;10.838;2023-07-13T17:05:45;22.36;99.99
63407;SHT31;49543;45.892;10.838;2023-07-13T17:08:20;22.30;99.99
63407;SHT31;49543;45.892;10.838;2023-07-13T17:10:50;22.24;99.99
63407;SHT31;49543;45.892;10.838;2023-07-13T17:13:16;22.16;99.99
63407;SHT31;49543;45.892;10.838;2023-07-13T17:15:43;22.12;99.99
63407;SHT31;49543;45.892;10.838;2023-07-13T17:18:13;22.09;99.99
63407;SHT31;49543;45.892;10.838;2023-07-13T17:20:41;22.02;99.99
63407;SHT31;49543;45.892;10.838;2023-07-13T17:23:24;21.99;99.99
63407;SHT31;49543;45.892;10.838;2023-07-13T17:25:50;21.95;99.99
63407;SHT31;49543;45.892;10.838;2023-07-13T17:28:19;21.89;99.99
63407;SHT31;49543;45.892;10.838;2023-07-13T17:30:46;21.86;99.99
63407;SHT31;49543;45.892;10.838;2023-07-13T17:35:43;21.85;99.99
63407;SHT31;49543;45.892;10.838;2023-07-13T17:38:08;21.86;99.99
63407;SHT31;49543;45.892;10.838;2023-07-13T17:40:35;21.83;99.99
63407;SHT31;49543;45.892;10.838;2023-07-13T17:43:02;21.71;99.99
63407;SHT31;49543;45.892;10.838;2023-07-13T17:45:28;21.74;99.99
63407;SHT31;49543;45.892;10.838;2023-07-13T17:47:55;21.72;99.99
63407;SHT31;49543;45.892;10.838;2023-07-13T17:50:31;21.66;99.99
63407;SHT31;49543;45.892;10.838;2023-07-13T17:53:19;21.66;95.66
63407;SHT31;49543;45.892;10.838;2023-07-13T17:55:45;21.78;93.23
63407;SHT31;49543;45.892;10.838;2023-07-13T17:58:10;21.78;95.42
63407;SHT31;49543;45.892;10.838;2023-07-13T18:00:37;21.83;96.85
63407;SHT31;49543;45.892;10.838;2023-07-13T18:06:10;21.85;97.42
63407;SHT31;49543;45.892;10.838;2023-07-13T18:08:42;21.88;98.64
63407;SHT31;49543;45.892;10.838;2023-07-13T18:11:08;21.88;99.25
63407;SHT31;49543;45.892;10.838;2023-07-13T18:13:33;21.83;97.13
63407;SHT31;49543;45.892;10.838;2023-07-13T18:16:05;21.86;94.16
63407;SHT31;49543;45.892;10.838;2023-07-13T18:18:30;21.90;92.44
63407;SHT31;49543;45.892;10.838;2023-07-13T18:20:58;21.92;93.50
63407;SHT31;49543;45.892;10.838;2023-07-13T18:23:25;21.95;91.31
63407;SHT31;49543;45.892;10.838;2023-07-13T18:25:51;22.05;88.71
63407;SHT31;49543;45.892;10.838;2023-07-13T18:28:17;22.12;90.05
63407;SHT31;49543;45.892;10.838;2023-07-13T18:30:44;22.14;90.26
63407;SHT31;49543;45.892;10.838;2023-07-13T18:33:22;22.13;89.96
63407;SHT31;49543;45.892;10.838;2023-07-13T18:35:48;22.10;89.75
63407;SHT31;49543;45.892;10.838;2023-07-13T18:38:18;22.07;90.25
63407;SHT31;49543;45.892;10.838;2023-07-13T18:40:46;22.05;90.25
63407;SHT31;49543;45.892;10.838;2023-07-13T18:43:11;22.00;91.81
63407;SHT31;49543;45.892;10.838;2023-07-13T18:45:37;21.97;92.98
63407;SHT31;49543;45.892;10.838;2023-07-13T18:48:03;21.96;94.14
63407;SHT31;49543;45.892;10.838;2023-07-13T18:50:29;21.93;91.64
63407;SHT31;49543;45.892;10.838;2023-07-13T18:52:56;21.92;91.67
63407;SHT31;49543;45.892;10.838;2023-07-13T18:55:21;21.97;89.84
63407;SHT31;49543;45.892;10.838;2023-07-13T18:57:47;21.95;90.30
63407;SHT31;49543;45.892;10.838;2023-07-13T19:00:14;21.97;89.74
63407;SHT31;49543;45.892;10.838;2023-07-13T19:02:39;22.00;85.92
63407;SHT31;49543;45.892;10.838;2023-07-13T19:05:19;22.03;86.69
63407;SHT31;49543;45.892;10.838;2023-07-13T19:07:45;22.06;89.23
63407;SHT31;49543;45.892;10.838;2023-07-13T19:10:14;22.02;87.65
63407;SHT31;49543;45.892;10.838;2023-07-13T19:12:42;22.12;86.32
63407;SHT31;49543;45.892;10.838;2023-07-13T19:15:17;22.16;87.33
63407;SHT31;49543;45.892;10.838;2023-07-13T19:17:43;22.18;87.89
63407;SHT31;49543;45.892;10.838;2023-07-13T19:20:12;22.16;86.74
63407;SHT31;49543;45.892;10.838;2023-07-13T19:22:39;22.14;88.42
63407;SHT31;49543;45.892;10.838;2023-07-13T19:25:04;22.09;90.18
63407;SHT31;49543;45.892;10.838;2023-07-13T19:27:30;22.02;91.32
63407;SHT31;49543;45.892;10.838;2023-07-13T19:29:55;21.96;91.93
63407;SHT31;49543;45.892;10.838;2023-07-13T19:32:21;21.95;88.86
63407;SHT31;49543;45.892;10.838;2023-07-13T19:34:47;21.95;86.77
63407;SHT31;49543;45.892;10.838;2023-07-13T19:39:39;21.86;90.15
63407;SHT31;49543;45.892;10.838;2023-07-13T19:42:15;21.83;91.13
63407;SHT31;49543;45.892;10.838;2023-07-13T19:44:41;21.76;91.42
63407;SHT31;49543;45.892;10.838;2023-07-13T19:47:13;21.74;91.81
63407;SHT31;49543;45.892;10.838;2023-07-13T19:49:39;21.66;91.89
63407;SHT31;49543;45.892;10.838;2023-07-13T19:52:11;21.62;92.55
63407;SHT31;49543;45.892;10.838;2023-07-13T19:54:37;21.55;91.73
63407;SHT31;49543;45.892;10.838;2023-07-13T19:57:08;21.51;92.13
63407;SHT31;49543;45.892;10.838;2023-07-13T19:59:33;21.52;92.21
63407;SHT31;49543;45.892;10.838;2023-07-13T20:01:59;21.55;92.13
63407;SHT31;49543;45.892;10.838;2023-07-13T20:04:25;21.52;91.96
63407;SHT31;49543;45.892;10.838;2023-07-13T20:06:50;21.51;91.35
63407;SHT31;49543;45.892;10.838;2023-07-13T20:09:17;21.52;91.56
63407;SHT31;49543;45.892;10.838;2023-07-13T20:11:43;21.52;90.34
63407;SHT31;49543;45.892;10.838;2023-07-13T20:14:23;21.51;90.72
63407;SHT31;49543;45.892;10.838;2023-07-13T20:16:52;21.49;91.31
63407;SHT31;49543;45.892;10.838;2023-07-13T20:19:21;21.54;91.41
63407;SHT31;49543;45.892;10.838;2023-07-13T20:21:47;21.52;90.27
63407;SHT31;49543;45.892;10.838;2023-07-13T20:24:18;21.57;90.26
63407;SHT31;49543;45.892;10.838;2023-07-13T20:26:45;21.51;90.47
63407;SHT31;49543;45.892;10.838;2023-07-13T20:29:11;21.45;90.60
63407;SHT31;49543;45.892;10.838;2023-07-13T20:31:37;21.34;90.85
63407;SHT31;49543;45.892;10.838;2023-07-13T20:34:03;21.27;91.64
63407;SHT31;49543;45.892;10.838;2023-07-13T20:36:31;21.17;91.82
63407;SHT31;49543;45.892;10.838;2023-07-13T20:38:57;21.08;92.47
63407;SHT31;49543;45.892;10.838;2023-07-13T20:41:23;21.03;92.92
63407;SHT31;49543;45.892;10.838;2023-07-13T20:43:49;20.94;93.21
63407;SHT31;49543;45.892;10.838;2023-07-13T20:46:17;20.89;93.45
63407;SHT31;49543;45.892;10.838;2023-07-13T20:48:44;20.86;93.67
63407;SHT31;49543;45.892;10.838;2023-07-13T20:51:15;20.83;93.67
63407;SHT31;49543;45.892;10.838;2023-07-13T20:53:42;20.77;93.37
63407;SHT31;49543;45.892;10.838;2023-07-13T20:56:16;20.80;93.92
63407;SHT31;49543;45.892;10.838;2023-07-13T20:58:42;20.77;93.69
63407;SHT31;49543;45.892;10.838;2023-07-13T21:01:21;20.77;94.03
63407;SHT31;49543;45.892;10.838;2023-07-13T21:03:47;20.75;94.17
63407;SHT31;49543;45.892;10.838;2023-07-13T21:06:17;20.76;93.67
63407;SHT31;49543;45.892;10.838;2023-07-13T21:08:43;20.77;93.67
63407;SHT31;49543;45.892;10.838;2023-07-13T21:11:09;20.77;93.92
63407;SHT31;49543;45.892;10.838;2023-07-13T21:13:34;20.76;93.89
63407;SHT31;49543;45.892;10.838;2023-07-13T21:16:00;20.75;93.84
63407;SHT31;49543;45.892;10.838;2023-07-13T21:18:26;20.73;93.66
63407;SHT31;49543;45.892;10.838;2023-07-13T21:20:55;20.75;92.51
63407;SHT31;49543;45.892;10.838;2023-07-13T21:25:52;20.76;93.08
63407;SHT31;49543;45.892;10.838;2023-07-13T21:28:17;20.75;92.96
63407;SHT31;49543;45.892;10.838;2023-07-13T21:30:43;20.72;93.02
63407;SHT31;49543;45.892;10.838;2023-07-13T21:33:12;20.71;93.03
63407;SHT31;49543;45.892;10.838;2023-07-13T21:35:40;20.71;93.35
63407;SHT31;49543;45.892;10.838;2023-07-13T21:38:15;20.69;93.61
63407;SHT31;49543;45.892;10.838;2023-07-13T21:40:41;20.66;93.54
63407;SHT31;49543;45.892;10.838;2023-07-13T21:43:11;20.69;93.11
63407;SHT31;49543;45.892;10.838;2023-07-13T21:45:37;20.66;93.33
63407;SHT31;49543;45.892;10.838;2023-07-13T21:48:02;20.66;93.52
63407;SHT31;49543;45.892;10.838;2023-07-13T21:50:41;20.64;93.69
63407;SHT31;49543;45.892;10.838;2023-07-13T21:53:13;20.62;93.67
63407;SHT31;49543;45.892;10.838;2023-07-13T21:55:39;20.66;94.00
63407;SHT31;49543;45.892;10.838;2023-07-13T21:58:05;20.64;94.14
63407;SHT31;49543;45.892;10.838;2023-07-13T22:00:34;20.64;94.30
63407;SHT31;49543;45.892;10.838;2023-07-13T22:03:00;20.64;94.35
63407;SHT31;49543;45.892;10.838;2023-07-13T22:05:25;20.62;94.20
63407;SHT31;49543;45.892;10.838;2023-07-13T22:07:51;20.59;94.05
63407;SHT31;49543;45.892;10.838;2023-07-13T22:10:17;20.58;93.48
63407;SHT31;49543;45.892;10.838;2023-07-13T22:12:43;20.58;93.75
63407;SHT31;49543;45.892;10.838;2023-07-13T22:15:09;20.56;93.56
63407;SHT31;49543;45.892;10.838;2023-07-13T22:17:34;20.55;93.67
63407;SHT31;49543;45.892;10.838;2023-07-13T22:20:00;20.55;93.60
63407;SHT31;49543;45.892;10.838;2023-07-13T22:22:25;20.53;93.86
63407;SHT31;49543;45.892;10.838;2023-07-13T22:24:52;20.51;93.13
63407;SHT31;49543;45.892;10.838;2023-07-13T22:27:17;20.48;93.40
63407;SHT31;49543;45.892;10.838;2023-07-13T22:29:43;20.51;93.46
63407;SHT31;49543;45.892;10.838;2023-07-13T22:32:09;20.48;93.15
63407;SHT31;49543;45.892;10.838;2023-07-13T22:34:36;20.49;93.33
63407;SHT31;49543;45.892;10.838;2023-07-13T22:37:02;20.51;93.63
63407;SHT31;49543;45.892;10.838;2023-07-13T22:39:28;20.51;93.47
63407;SHT31;49543;45.892;10.838;2023-07-13T22:41:54;20.51;93.58
63407;SHT31;49543;45.892;10.838;2023-07-13T22:44:20;20.49;93.75
63407;SHT31;49543;45.892;10.838;2023-07-13T22:46:46;20.48;93.83
63407;SHT31;49543;45.892;10.838;2023-07-13T22:49:19;20.51;93.26
63407;SHT31;49543;45.892;10.838;2023-07-13T22:51:45;20.47;93.40
63407;SHT31;49543;45.892;10.838;2023-07-13T22:54:10;20.45;93.63
63407;SHT31;49543;45.892;10.838;2023-07-13T22:56:36;20.44;93.71
63407;SHT31;49543;45.892;10.838;2023-07-13T22:59:01;20.39;93.75
63407;SHT31;49543;45.892;10.838;2023-07-13T23:01:27;20.41;93.88
63407;SHT31;49543;45.892;10.838;2023-07-13T23:03:53;20.41;93.88
63407;SHT31;49543;45.892;10.838;2023-07-13T23:06:29;20.38;93.63
